createdAt,value
2018-07-24T00:00:54.317Z,25.30
2018-07-24T00:03:23.280Z,25.30
2018-07-24T00:05:52.263Z,25.30
2018-07-24T00:10:49.775Z,25.20
2018-07-24T00:13:18.718Z,25.20
2018-07-24T00:15:47.681Z,25.10
2018-07-24T00:18:16.631Z,25.10
2018-07-24T00:20:45.610Z,25.10
2018-07-24T00:23:14.594Z,25.00
2018-07-24T00:25:43.550Z,25.00
2018-07-24T00:28:12.537Z,24.90
2018-07-24T00:30:41.492Z,24.90
2018-07-24T00:33:10.513Z,24.90
2018-07-24T00:35:39.491Z,24.80
2018-07-24T00:38:08.501Z,24.80
2018-07-24T00:40:37.446Z,24.80
2018-07-24T00:43:06.459Z,24.80
2018-07-24T00:45:35.413Z,24.70
2018-07-24T00:48:04.404Z,24.70
2018-07-24T00:50:33.367Z,24.70
2018-07-24T00:53:02.325Z,24.70
2018-07-24T00:55:31.285Z,24.70
2018-07-24T00:58:00.274Z,24.60
2018-07-24T01:00:29.226Z,24.60
2018-07-24T01:02:58.194Z,24.60
2018-07-24T01:05:27.169Z,24.60
2018-07-24T01:07:56.157Z,24.60
2018-07-24T01:10:25.145Z,24.60
2018-07-24T01:12:54.152Z,24.50
2018-07-24T01:15:23.131Z,24.50
2018-07-24T01:17:52.265Z,24.50
2018-07-24T01:20:21.242Z,24.50
2018-07-24T01:22:50.262Z,24.50
2018-07-24T01:25:19.212Z,24.40
2018-07-24T01:27:48.221Z,24.40
2018-07-24T01:30:17.185Z,24.40
2018-07-24T01:32:46.153Z,24.40
2018-07-24T01:35:15.131Z,24.40
2018-07-24T01:37:44.133Z,24.40
2018-07-24T01:40:13.168Z,24.40
2018-07-24T01:42:42.157Z,24.30
2018-07-24T01:45:11.190Z,24.30
2018-07-24T01:47:40.258Z,24.30
2018-07-24T01:50:09.248Z,24.30
2018-07-24T01:52:38.264Z,24.20
2018-07-24T01:55:07.796Z,24.20
2018-07-24T01:57:36.809Z,24.10
2018-07-24T02:00:06.404Z,24.20
2018-07-24T02:02:35.409Z,24.10
2018-07-24T02:05:04.395Z,24.00
2018-07-24T02:07:33.436Z,24.00
2018-07-24T02:10:02.389Z,24.00
2018-07-24T02:12:31.390Z,23.90
2018-07-24T02:15:00.355Z,23.90
2018-07-24T02:17:29.371Z,23.90
2018-07-24T02:19:58.333Z,23.80
2018-07-24T02:22:27.358Z,23.80
2018-07-24T02:24:56.323Z,23.80
2018-07-24T02:27:25.354Z,23.70
2018-07-24T02:29:54.322Z,23.70
2018-07-24T02:32:23.318Z,23.70
2018-07-24T02:34:52.294Z,23.60
2018-07-24T02:37:21.294Z,23.50
2018-07-24T02:39:50.278Z,23.50
2018-07-24T02:42:19.289Z,23.50
2018-07-24T02:44:48.250Z,23.40
2018-07-24T02:47:17.287Z,23.30
2018-07-24T02:49:46.274Z,23.30
2018-07-24T02:52:15.274Z,23.30
2018-07-24T02:54:44.495Z,23.20
2018-07-24T02:57:13.489Z,23.20
2018-07-24T02:59:42.459Z,23.20
2018-07-24T03:02:11.538Z,23.10
2018-07-24T03:04:40.577Z,23.10
2018-07-24T03:07:09.545Z,23.10
2018-07-24T03:09:38.580Z,23.10
2018-07-24T03:12:07.531Z,23.10
2018-07-24T03:14:36.562Z,23.00
2018-07-24T03:17:05.558Z,23.00
2018-07-24T03:19:34.569Z,23.00
2018-07-24T03:22:03.549Z,23.00
2018-07-24T03:24:32.548Z,23.00
2018-07-24T03:27:01.511Z,22.90
2018-07-24T03:29:42.470Z,22.90
2018-07-24T03:32:11.536Z,22.80
2018-07-24T03:34:40.595Z,22.80
2018-07-24T03:37:09.577Z,22.80
2018-07-24T03:39:38.627Z,22.70
2018-07-24T03:42:08.315Z,22.70
2018-07-24T03:44:37.333Z,22.70
2018-07-24T03:47:06.522Z,22.70
2018-07-24T03:49:35.698Z,22.70
2018-07-24T03:52:04.721Z,22.70
2018-07-24T03:54:33.740Z,22.70
2018-07-24T03:57:02.708Z,22.70
2018-07-24T03:59:31.774Z,22.70
2018-07-24T04:02:00.766Z,22.70
2018-07-24T04:04:29.756Z,22.70
2018-07-24T04:06:58.739Z,22.70
2018-07-24T04:09:27.767Z,22.70
2018-07-24T04:11:56.718Z,22.70
2018-07-24T04:14:25.741Z,22.70
2018-07-24T04:16:54.714Z,22.70
2018-07-24T04:19:23.721Z,22.70
2018-07-24T04:21:52.793Z,22.70
2018-07-24T04:24:21.793Z,22.70
2018-07-24T04:29:19.332Z,22.70
2018-07-24T04:31:48.312Z,22.70
2018-07-24T04:34:17.322Z,22.70
2018-07-24T04:36:46.301Z,22.60
2018-07-24T04:39:15.318Z,22.60
2018-07-24T04:41:44.297Z,22.60
2018-07-24T04:44:13.322Z,22.60
2018-07-24T04:46:42.362Z,22.60
2018-07-24T04:49:11.407Z,22.60
2018-07-24T04:51:40.434Z,22.60
2018-07-24T04:54:09.413Z,22.60
2018-07-24T04:59:06.986Z,22.60
2018-07-24T05:01:35.969Z,22.60
2018-07-24T05:04:05.025Z,22.60
2018-07-24T05:06:34.005Z,22.60
2018-07-24T05:09:03.041Z,22.60
2018-07-24T05:11:32.085Z,22.60
2018-07-24T05:14:01.065Z,22.60
2018-07-24T05:16:30.076Z,22.60
2018-07-24T05:18:59.045Z,22.60
2018-07-24T05:21:31.334Z,22.60
2018-07-24T05:24:00.366Z,22.60
2018-07-24T05:26:29.420Z,22.60
2018-07-24T05:28:58.413Z,22.60
2018-07-24T05:31:27.721Z,22.60
2018-07-24T05:33:56.872Z,22.60
2018-07-24T05:36:26.015Z,22.60
2018-07-24T05:38:54.997Z,22.60
2018-07-24T05:41:24.002Z,22.60
2018-07-24T05:43:52.951Z,22.60
2018-07-24T05:46:21.941Z,22.70
2018-07-24T05:48:51.160Z,22.70
2018-07-24T05:51:20.158Z,22.70
2018-07-24T05:53:49.124Z,22.70
2018-07-24T05:56:18.133Z,22.70
2018-07-24T05:58:47.237Z,22.80
2018-07-24T06:01:16.275Z,22.80
2018-07-24T06:03:45.260Z,22.80
2018-07-24T06:06:14.310Z,22.80
2018-07-24T06:08:43.302Z,22.90
2018-07-24T06:11:12.320Z,22.90
2018-07-24T06:13:41.351Z,22.90
2018-07-24T06:16:10.357Z,23.00
2018-07-24T06:18:39.361Z,23.00
2018-07-24T06:21:08.370Z,23.00
2018-07-24T06:23:37.320Z,23.10
2018-07-24T06:26:06.341Z,23.10
2018-07-24T06:28:35.290Z,23.20
2018-07-24T06:31:04.317Z,23.20
2018-07-24T06:33:33.285Z,23.20
2018-07-24T06:36:02.314Z,23.20
2018-07-24T06:38:31.330Z,23.30
2018-07-24T06:41:00.338Z,23.30
2018-07-24T06:43:29.317Z,23.30
2018-07-24T06:45:58.297Z,23.30
2018-07-24T06:51:38.340Z,23.40
2018-07-24T06:54:07.303Z,23.40
2018-07-24T06:56:36.327Z,23.40
2018-07-24T06:59:05.317Z,23.40
2018-07-24T07:01:34.353Z,23.50
2018-07-24T07:04:03.411Z,23.50
2018-07-24T07:06:32.457Z,23.50
2018-07-24T07:09:09.403Z,23.50
2018-07-24T07:11:38.539Z,23.50
2018-07-24T07:14:07.574Z,23.60
2018-07-24T07:16:36.591Z,23.60
2018-07-24T07:19:05.616Z,23.60
2018-07-24T07:21:34.679Z,23.60
2018-07-24T07:24:03.791Z,23.60
2018-07-24T07:26:41.114Z,23.70
2018-07-24T07:29:10.176Z,23.70
2018-07-24T07:31:39.280Z,23.70
2018-07-24T07:34:08.291Z,23.80
2018-07-24T07:36:37.310Z,23.80
2018-07-24T07:39:08.747Z,23.90
2018-07-24T07:41:37.814Z,24.00
2018-07-24T07:44:06.807Z,24.00
2018-07-24T07:46:35.858Z,24.10
2018-07-24T07:49:04.848Z,24.20
2018-07-24T07:51:33.913Z,24.30
2018-07-24T07:54:02.864Z,24.40
2018-07-24T07:56:31.837Z,24.40
2018-07-24T07:59:00.856Z,24.50
2018-07-24T08:01:30.440Z,24.50
2018-07-24T08:04:03.590Z,24.60
2018-07-24T08:06:32.670Z,24.60
2018-07-24T08:09:01.894Z,24.60
2018-07-24T08:11:30.920Z,24.70
2018-07-24T08:13:59.920Z,24.80
2018-07-24T08:16:28.977Z,24.80
2018-07-24T08:18:58.220Z,24.80
2018-07-24T08:21:27.258Z,24.90
2018-07-24T08:23:57.577Z,24.90
2018-07-24T08:26:26.634Z,25.00
2018-07-24T08:31:24.147Z,25.10
2018-07-24T08:33:53.153Z,25.10
2018-07-24T08:36:22.110Z,25.10
2018-07-24T08:41:19.714Z,25.20
2018-07-24T08:43:48.736Z,25.20
2018-07-24T08:46:17.798Z,25.20
2018-07-24T08:48:46.887Z,25.30
2018-07-24T08:51:15.879Z,25.30
2018-07-24T08:53:45.480Z,25.30
2018-07-24T08:56:14.014Z,25.30
2018-07-24T08:58:42.996Z,25.40
2018-07-24T09:01:11.994Z,25.40
2018-07-24T09:03:46.510Z,25.40
2018-07-24T09:06:15.449Z,25.40
2018-07-24T09:08:44.490Z,25.40
2018-07-24T09:11:13.454Z,25.50
2018-07-24T09:13:42.513Z,25.50
2018-07-24T09:16:11.615Z,25.50
2018-07-24T09:18:40.674Z,25.50
2018-07-24T09:21:09.908Z,25.50
2018-07-24T09:23:38.996Z,25.60
2018-07-24T09:26:08.013Z,25.60
2018-07-24T09:28:37.068Z,25.70
2018-07-24T09:31:07.292Z,25.70
2018-07-24T09:33:37.360Z,25.70
2018-07-24T09:36:06.481Z,25.70
2018-07-24T09:38:35.492Z,25.70
2018-07-24T09:41:04.440Z,25.70
2018-07-24T09:43:33.453Z,25.80
2018-07-24T09:46:02.424Z,25.80
2018-07-24T09:48:31.513Z,25.80
2018-07-24T09:51:00.497Z,25.80
2018-07-24T09:53:29.542Z,25.80
2018-07-24T09:58:27.416Z,25.90
2018-07-24T10:01:01.750Z,25.90
2018-07-24T10:03:30.795Z,26.00
2018-07-24T10:05:59.783Z,26.00
2018-07-24T10:08:28.829Z,26.00
2018-07-24T10:10:57.939Z,26.10
2018-07-24T10:13:27.128Z,26.10
2018-07-24T10:15:57.339Z,26.20
2018-07-24T10:18:26.555Z,26.20
2018-07-24T10:20:55.543Z,26.30
2018-07-24T10:23:24.598Z,26.40
2018-07-24T10:25:53.601Z,26.40
2018-07-24T10:28:22.601Z,26.50
2018-07-24T10:30:51.526Z,26.50
2018-07-24T10:35:49.651Z,26.70
2018-07-24T10:38:18.711Z,26.70
2018-07-24T10:40:53.440Z,26.80
2018-07-24T10:45:51.253Z,26.90
2018-07-24T10:48:20.317Z,26.90
2018-07-24T10:50:49.291Z,26.90
2018-07-24T10:53:18.330Z,27.00
2018-07-24T10:55:47.290Z,27.00
2018-07-24T10:58:16.361Z,27.00
2018-07-24T11:00:45.451Z,27.00
2018-07-24T11:03:14.470Z,27.00
2018-07-24T11:05:43.491Z,27.00
2018-07-24T11:08:12.505Z,27.00
2018-07-24T11:10:41.483Z,27.00
2018-07-24T11:13:10.526Z,27.10
2018-07-24T11:15:39.486Z,27.10
2018-07-24T11:18:08.465Z,27.10
2018-07-24T11:20:37.418Z,27.10
2018-07-24T11:23:06.570Z,27.20
2018-07-24T11:25:35.556Z,27.30
2018-07-24T11:28:04.626Z,27.30
2018-07-24T11:30:33.623Z,27.40
2018-07-24T11:33:03.243Z,27.50
2018-07-24T11:35:32.199Z,27.60
2018-07-24T11:38:01.236Z,27.70
2018-07-24T11:40:30.332Z,27.70
2018-07-24T11:42:59.325Z,27.80
2018-07-24T11:47:56.845Z,28.00
2018-07-24T11:50:25.841Z,28.10
2018-07-24T11:52:54.813Z,28.20
2018-07-24T11:55:23.832Z,28.30
2018-07-24T11:57:52.829Z,28.30
2018-07-24T12:00:21.953Z,28.40
2018-07-24T12:02:52.356Z,28.50
2018-07-24T12:05:21.506Z,28.60
2018-07-24T12:07:51.195Z,28.60
2018-07-24T12:10:20.369Z,28.60
2018-07-24T12:12:50.310Z,28.60
2018-07-24T12:17:47.977Z,28.70
2018-07-24T12:20:17.070Z,28.80
2018-07-24T12:22:46.073Z,28.80
2018-07-24T12:25:15.085Z,28.90
2018-07-24T12:27:44.067Z,29.00
2018-07-24T12:30:13.498Z,29.10
2018-07-24T12:32:42.463Z,29.20
2018-07-24T12:35:11.561Z,29.30
2018-07-24T12:37:40.656Z,29.40
2018-07-24T12:40:09.768Z,29.50
2018-07-24T12:42:38.802Z,29.60
2018-07-24T12:45:07.821Z,29.70
2018-07-24T12:47:36.764Z,29.70
2018-07-24T12:50:05.814Z,29.80
2018-07-24T12:52:34.900Z,29.90
2018-07-24T12:55:04.424Z,29.90
2018-07-24T12:57:34.188Z,30.00
2018-07-24T13:00:04.255Z,30.00
2018-07-24T13:02:33.387Z,30.10
2018-07-24T13:05:02.858Z,30.10
2018-07-24T13:07:32.023Z,30.20
2018-07-24T13:10:01.765Z,30.20
2018-07-24T13:12:31.576Z,30.30
2018-07-24T13:15:00.598Z,30.40
2018-07-24T13:17:29.615Z,30.40
2018-07-24T13:19:58.854Z,30.50
2018-07-24T13:22:27.850Z,30.50
2018-07-24T13:24:56.874Z,30.60
2018-07-24T13:27:25.973Z,30.70
2018-07-24T13:29:55.063Z,30.80
2018-07-24T13:32:24.270Z,30.80
2018-07-24T13:34:53.364Z,30.90
2018-07-24T13:37:22.365Z,30.90
2018-07-24T13:42:20.037Z,31.00
2018-07-24T13:47:17.843Z,31.20
2018-07-24T13:52:15.412Z,31.30
2018-07-24T13:54:44.655Z,31.40
2018-07-24T13:57:13.660Z,31.50
2018-07-24T13:59:42.660Z,31.50
2018-07-24T14:02:11.634Z,31.60
2018-07-24T14:04:40.656Z,31.80
2018-07-24T14:07:09.902Z,31.90
2018-07-24T14:09:44.593Z,32.00
2018-07-24T14:12:13.561Z,32.10
2018-07-24T14:14:42.592Z,32.20
2018-07-24T14:17:11.586Z,32.30
2018-07-24T14:19:40.601Z,32.40
2018-07-24T14:22:09.577Z,32.50
2018-07-24T14:24:38.578Z,32.60
2018-07-24T14:27:07.532Z,32.70
2018-07-24T14:29:36.530Z,32.80
2018-07-24T14:32:05.556Z,32.80
2018-07-24T14:34:34.508Z,32.90
2018-07-24T14:37:03.508Z,33.00
2018-07-24T14:39:32.486Z,33.00
2018-07-24T14:42:01.562Z,33.10
2018-07-24T14:44:31.527Z,33.10
2018-07-24T14:47:00.496Z,33.20
2018-07-24T14:49:29.461Z,33.20
2018-07-24T14:51:58.490Z,33.20
2018-07-24T14:54:27.429Z,33.30
2018-07-24T14:56:56.629Z,33.40
2018-07-24T14:59:25.637Z,33.40
2018-07-24T15:01:54.625Z,33.50
2018-07-24T15:04:23.634Z,33.60
2018-07-24T15:06:52.612Z,33.60
2018-07-24T15:09:26.161Z,33.70
2018-07-24T15:11:55.248Z,33.80
2018-07-24T15:14:24.209Z,33.90
2018-07-24T15:16:53.757Z,34.00
2018-07-24T15:19:23.312Z,34.10
2018-07-24T15:21:52.279Z,34.10
2018-07-24T15:24:21.244Z,34.20
2018-07-24T15:26:50.360Z,34.30
2018-07-24T15:29:19.286Z,34.30
2018-07-24T15:31:48.264Z,34.40
2018-07-24T15:34:17.217Z,34.50
2018-07-24T15:36:46.278Z,34.50
2018-07-24T15:39:16.311Z,34.60
2018-07-24T15:41:45.492Z,34.70
2018-07-24T15:44:14.430Z,34.70
2018-07-24T15:46:43.507Z,34.80
2018-07-24T15:49:12.569Z,34.80
2018-07-24T15:51:41.571Z,34.70
2018-07-24T15:54:10.524Z,34.60
2018-07-24T15:56:39.515Z,34.50
2018-07-24T15:59:08.491Z,34.40
2018-07-24T16:01:37.493Z,34.20
2018-07-24T16:04:06.476Z,34.10
2018-07-24T16:06:35.450Z,34.00
2018-07-24T16:11:35.176Z,33.70
2018-07-24T16:14:04.173Z,33.60
2018-07-24T16:16:33.234Z,33.50
2018-07-24T16:19:02.300Z,33.30
2018-07-24T16:21:31.320Z,33.20
2018-07-24T16:24:00.248Z,33.10
2018-07-24T16:26:29.300Z,33.00
2018-07-24T16:28:58.266Z,32.90
2018-07-24T16:31:27.286Z,32.80
2018-07-24T16:33:56.249Z,32.70
2018-07-24T16:36:25.468Z,32.60
2018-07-24T16:38:54.406Z,32.50
2018-07-24T16:41:23.396Z,32.40
2018-07-24T16:43:52.345Z,32.30
2018-07-24T16:46:21.321Z,32.10
2018-07-24T16:51:18.785Z,31.70
2018-07-24T16:53:47.727Z,31.50
2018-07-24T16:56:16.787Z,31.40
2018-07-24T16:58:45.668Z,31.30
2018-07-24T17:01:14.657Z,31.10
2018-07-24T17:06:12.805Z,31.00
2018-07-24T17:08:41.742Z,30.90
2018-07-24T17:11:10.766Z,30.80
2018-07-24T17:13:39.676Z,30.70
2018-07-24T17:16:08.912Z,30.70
2018-07-24T17:18:37.865Z,30.60
2018-07-24T17:21:07.005Z,30.50
2018-07-24T17:23:35.948Z,30.50
2018-07-24T17:26:05.168Z,30.40
2018-07-24T17:28:34.277Z,30.30
2018-07-24T17:31:03.496Z,30.20
2018-07-24T17:33:32.562Z,30.10
2018-07-24T17:36:01.653Z,30.00
2018-07-24T17:38:30.696Z,29.90
2018-07-24T17:41:00.119Z,29.80
2018-07-24T17:43:29.200Z,29.70
2018-07-24T17:45:58.297Z,29.60
2018-07-24T17:48:27.464Z,29.50
2018-07-24T17:50:56.491Z,29.40
2018-07-24T17:53:25.610Z,29.40
2018-07-24T17:55:54.574Z,29.30
2018-07-24T18:00:52.276Z,29.10
2018-07-24T18:03:21.347Z,29.10
2018-07-24T18:05:50.334Z,29.00
2018-07-24T18:08:19.445Z,28.90
2018-07-24T18:10:48.507Z,28.80
2018-07-24T18:13:17.556Z,28.80
2018-07-24T18:15:46.588Z,28.70
2018-07-24T18:18:15.609Z,28.60
2018-07-24T18:20:44.610Z,28.60
2018-07-24T18:23:13.637Z,26.70
2018-07-24T18:25:42.632Z,28.40
2018-07-24T18:28:11.647Z,28.40
2018-07-24T18:30:40.590Z,28.30
2018-07-24T18:33:09.607Z,28.20
2018-07-24T18:35:38.575Z,28.20
2018-07-24T18:38:08.550Z,28.10
2018-07-24T18:40:37.580Z,28.10
2018-07-24T18:43:06.734Z,28.00
2018-07-24T18:45:35.694Z,28.00
2018-07-24T18:48:04.996Z,28.00
2018-07-24T18:53:02.512Z,27.90
2018-07-24T18:55:31.457Z,27.80
2018-07-24T18:58:00.476Z,27.80
2018-07-24T19:00:29.469Z,27.70
2018-07-24T19:02:58.458Z,27.70
2018-07-24T19:05:27.466Z,27.60
2018-07-24T19:08:05.046Z,27.60
2018-07-24T19:10:34.279Z,27.60
2018-07-24T19:13:03.289Z,27.60
2018-07-24T19:15:32.325Z,27.50
2018-07-24T19:18:01.336Z,27.50
2018-07-24T19:20:30.367Z,27.40
2018-07-24T19:22:59.345Z,27.40
2018-07-24T19:25:28.415Z,27.40
2018-07-24T19:27:57.555Z,27.30
2018-07-24T19:30:26.537Z,27.30
2018-07-24T19:32:55.550Z,27.30
2018-07-24T19:35:24.626Z,27.20
2018-07-24T19:37:53.731Z,27.20
2018-07-24T19:40:23.039Z,27.20
2018-07-24T19:42:52.281Z,27.20
2018-07-24T19:47:49.829Z,27.10
2018-07-24T19:50:18.801Z,27.10
2018-07-24T19:52:47.814Z,27.10
2018-07-24T19:55:16.890Z,27.00
2018-07-24T19:57:45.903Z,27.00
2018-07-24T20:00:14.920Z,27.00
2018-07-24T20:02:43.909Z,27.00
2018-07-24T20:05:12.880Z,26.90
2018-07-24T20:07:42.477Z,27.00
2018-07-24T20:10:11.501Z,26.90
2018-07-24T20:12:40.490Z,26.90
2018-07-24T20:15:13.901Z,26.90
2018-07-24T20:17:42.932Z,26.80
2018-07-24T20:20:12.213Z,26.80
2018-07-24T20:22:41.250Z,26.80
2018-07-24T20:25:10.250Z,26.80
2018-07-24T20:27:39.310Z,26.80
2018-07-24T20:30:08.342Z,26.80
2018-07-24T20:32:37.404Z,26.80
2018-07-24T20:37:35.153Z,26.70
2018-07-24T20:40:04.972Z,26.70
2018-07-24T20:42:34.064Z,26.60
2018-07-24T20:45:03.113Z,26.60
2018-07-24T20:47:32.330Z,26.60
2018-07-24T20:50:01.573Z,26.60
2018-07-24T20:52:30.586Z,26.60
2018-07-24T20:57:28.116Z,26.50
2018-07-24T20:59:57.215Z,26.50
2018-07-24T21:02:26.361Z,26.50
2018-07-24T21:04:55.421Z,26.50
2018-07-24T21:07:24.516Z,26.40
2018-07-24T21:09:53.591Z,26.40
2018-07-24T21:12:22.610Z,26.40
2018-07-24T21:14:51.666Z,26.40
2018-07-24T21:17:20.597Z,26.40
2018-07-24T21:19:49.608Z,26.40
2018-07-24T21:22:18.685Z,26.40
2018-07-24T21:24:47.702Z,26.40
2018-07-24T21:27:16.711Z,26.30
2018-07-24T21:29:45.777Z,26.30
2018-07-24T21:32:14.738Z,26.30
2018-07-24T21:34:43.929Z,26.30
2018-07-24T21:37:12.862Z,26.20
2018-07-24T21:39:41.972Z,26.20
2018-07-24T21:42:10.913Z,26.20
2018-07-24T21:44:40.043Z,26.20
2018-07-24T21:47:09.043Z,26.20
2018-07-24T21:49:38.029Z,26.20
2018-07-24T21:52:06.990Z,26.10
2018-07-24T21:54:35.968Z,26.10
2018-07-24T21:57:05.595Z,26.10
2018-07-24T21:59:34.738Z,26.10
2018-07-24T22:02:03.694Z,26.10
2018-07-24T22:04:32.661Z,26.00
2018-07-24T22:07:01.627Z,26.00
2018-07-24T22:09:30.642Z,25.90
2018-07-24T22:11:59.598Z,25.80
2018-07-24T22:14:28.589Z,25.80
2018-07-24T22:16:57.546Z,25.80
2018-07-24T22:19:26.546Z,25.80
2018-07-24T22:21:55.560Z,25.70
2018-07-24T22:24:24.562Z,25.70
2018-07-24T22:26:53.554Z,25.70
2018-07-24T22:29:22.533Z,25.60
2018-07-24T22:31:51.673Z,25.60
2018-07-24T22:34:20.694Z,25.60
2018-07-24T22:39:18.192Z,25.60
2018-07-24T22:41:47.129Z,25.60
2018-07-24T22:44:16.111Z,25.60
2018-07-24T22:46:45.058Z,25.50
2018-07-24T22:49:14.038Z,25.50
2018-07-24T22:51:43.004Z,25.50
2018-07-24T22:54:11.997Z,25.50
2018-07-24T22:56:40.974Z,25.40
2018-07-24T22:59:09.966Z,25.40
2018-07-24T23:01:38.905Z,25.40
2018-07-24T23:04:07.865Z,25.40
2018-07-24T23:06:36.822Z,25.40
2018-07-24T23:09:08.420Z,25.40
2018-07-24T23:11:37.407Z,25.40
2018-07-24T23:14:06.441Z,25.40
2018-07-24T23:19:03.936Z,25.30
2018-07-24T23:21:33.000Z,25.30
2018-07-24T23:24:01.989Z,25.30
2018-07-24T23:28:59.527Z,25.20
2018-07-24T23:31:28.524Z,25.20
2018-07-24T23:33:57.569Z,25.20
2018-07-24T23:38:55.094Z,25.10
2018-07-24T23:41:24.072Z,25.10
2018-07-24T23:43:53.084Z,25.10
2018-07-24T23:46:22.069Z,25.10
2018-07-24T23:48:51.066Z,25.00
2018-07-24T23:51:20.043Z,25.00
2018-07-24T23:53:49.022Z,25.00
2018-07-24T23:56:17.998Z,25.00
2018-07-24T23:58:47.000Z,24.90
